CheckWX is a tool to help pilots better visualize weather data.  It is not intended as a substitute for an official pre-flight weather briefing.

01:08:11 UTC

CYXL METAR
Sioux Lookout Airport
Sioux Lookout, Canada
Current

1 hour ago

CYXL 240000Z 13004KT 100V160 3SM -SN SCT013 OVC027 M03/M04 A2979 RMK SC3SC5 SLP118
Observed
Feb-24 @ 00:00 UTC
Wind
  • 130° at 4 KTS
Visibility
3 SM
Flight Rules
MVFR
Conditions
Light Snow
Cloud Levels
  • Scattered at 1,300' AGL
  • Overcast at 2,700' AGL
Temperature
-3°C / 27°F
Dewpoint
-4°C / 25°F
Humidity
93%
Altimeter
29.79" Hg
Pressure
1011.8 hPa
Previous

2 hours ago

CYXL 232300Z 14005KT 100V170 2SM -SN SCT009 OVC013 M03/M04 A2982 RMK SN2SF2SC4 SLP128
Observed
Feb-23 @ 23:00 UTC
Wind
  • 140° at 5 KTS
Visibility
2 SM
Flight Rules
IFR
Conditions
Light Snow
Cloud Levels
  • Scattered at 900' AGL
  • Overcast at 1,300' AGL
Temperature
-3°C / 27°F
Dewpoint
-4°C / 25°F
Humidity
93%
Altimeter
29.82" Hg
Pressure
1012.8 hPa
Previous

2 hours ago

CYXL 232252Z 15005KT 110V170 2 1/2SM -SN OVC013 M03/M04 A2982 RMK SN3SC5 SLP130
Observed
Feb-23 @ 22:52 UTC
Wind
  • 150° at 5 KTS
Visibility
2 1/2 SM
Flight Rules
IFR
Conditions
Light Snow
Cloud Levels
  • Overcast at 1,300' AGL
Temperature
-3°C / 27°F
Dewpoint
-4°C / 25°F
Humidity
93%
Altimeter
29.82" Hg
Pressure
1013 hPa